Time;durP1;ratioP1;P1;durP2;ratioP2;P2;SDS_P1;SDS_P2;PMS_P1;PMS_P2;Temp;Humidity;BMP_temperature;BMP_pressure;BME280_temperature;BME280_humidity;BME280_pressure;Samples;Min_cycle;Max_cycle;Signal;HPM_P1;HPM_P2
2022/05/30 00:00:56;;;;;;;;;;;;;;;;;;4915932;28;21044;-61
2022/05/30 00:03:22;;;;;;;;;;;;;;;;;;4915876;28;19934;-61
2022/05/30 00:05:50;;;;;;;;;;;;;;;;;;4919570;28;21177;-61
2022/05/30 00:08:18;;;;;;;;;;;;;;;;;;4925825;28;19918;-63
2022/05/30 00:10:46;;;;;;;;;;;;;;;;;;4933031;28;22084;-61
2022/05/30 00:13:14;;;;;;;;;;;;;;;;;;4920218;28;19965;-61
2022/05/30 00:15:39;;;;;;;;;;;;;;;;;;4917045;28;19931;-61
2022/05/30 00:18:04;;;;;;;;;;;;;;;;;;4931481;28;19923;-61
2022/05/30 00:20:30;;;;;;;;;;;;;;;;;;4922547;28;19930;-61
2022/05/30 00:22:58;;;;;;;;;;;;;;;;;;4921466;28;19933;-61
2022/05/30 00:25:26;;;;;;;;;;;;;;;;;;4917011;28;20417;-61
2022/05/30 00:27:51;;;;;;;;;;;;;;;;;;4918457;28;19933;-61
2022/05/30 00:30:16;;;;;;;;;;;;;;;;;;4919445;28;20377;-61
2022/05/30 00:32:42;;;;;;;;;;;;;;;;;;4922697;28;20559;-61
2022/05/30 00:35:07;;;;;;;;;;;;;;;;;;4924919;28;19969;-62
2022/05/30 00:37:32;;;;;;;;;;;;;;;;;;4924319;28;19929;-61
2022/05/30 00:40:00;;;;;;;;;;;;;;;;;;4938846;28;20036;-61
2022/05/30 00:42:31;;;;;;;;;;;;;;;;;;4925656;28;19930;-61
2022/05/30 00:44:56;;;;;;;;;;;;;;;;;;4925818;28;19976;-61
2022/05/30 00:47:22;;;;;;;;;;;;;;;;;;4925450;28;19922;-61
2022/05/30 00:49:47;;;;;;;;;;;;;;;;;;4922953;28;19977;-60
2022/05/30 00:52:15;;;;;;;;;;;;;;;;;;4937595;28;21460;-60
2022/05/30 00:54:40;;;;;;;;;;;;;;;;;;4926711;28;19926;-60
2022/05/30 00:57:20;;;;;;;;;;;;;;;;;;4926555;28;19922;-60
2022/05/30 00:59:45;;;;;;;;;;;;;;;;;;4938477;28;20461;-61
2022/05/30 01:02:13;;;;;;;;;;;;;;;;;;4926062;28;19925;-61
2022/05/30 01:07:22;;;;;;;;;;;;;;;;;;4924796;28;19977;-61
2022/05/30 01:09:47;;;;;;;;;;;;;;;;;;4922777;28;20391;-61
2022/05/30 01:12:13;;;;;;;;;;;;;;;;;;4924169;28;19929;-62
2022/05/30 01:14:38;;;;;;;;;;;;;;;;;;4925967;28;19921;-61
2022/05/30 01:17:08;;;;;;;;;;;;;;;;;;4938857;28;19922;-62
2022/05/30 01:19:33;;;;;;;;;;;;;;;;;;4925373;28;19957;-59
2022/05/30 01:22:01;;;;;;;;;;;;;;;;;;4924084;28;19922;-58
2022/05/30 01:24:29;;;;;;;;;;;;;;;;;;4921845;28;19974;-61
2022/05/30 01:26:57;;;;;;;;;;;;;;;;;;4922654;28;21748;-59
2022/05/30 01:29:22;;;;;;;;;;;;;;;;;;4925005;28;19993;-60
2022/05/30 01:31:47;;;;;;;;;;;;;;;;;;4919085;28;19926;-60
2022/05/30 01:34:15;;;;;;;;;;;;;;;;;;4937713;28;19973;-60
2022/05/30 01:36:40;;;;;;;;;;;;;;;;;;4919484;28;19922;-60
2022/05/30 01:39:08;;;;;;;;;;;;;;;;;;4934863;28;19938;-61
2022/05/30 01:41:33;;;;;;;;;;;;;;;;;;4917996;28;20290;-60
2022/05/30 01:43:58;;;;;;;;;;;;;;;;;;4918758;28;19946;-60
2022/05/30 01:46:24;;;;;;;;;;;;;;;;;;4919928;28;20226;-59
2022/05/30 01:48:55;;;;;;;;;;;;;;;;;;4916950;28;19922;-61
2022/05/30 01:51:22;;;;;;;;;;;;;;;;;;4920938;28;19950;-59
2022/05/30 01:53:48;;;;;;;;;;;;;;;;;;4922112;28;19923;-60
2022/05/30 01:56:14;;;;;;;;;;;;;;;;;;4900172;28;19941;-60
2022/05/30 01:58:41;;;;;;;;;;;;;;;;;;4915571;28;19937;-60
2022/05/30 02:01:07;;;;;;;;;;;;;;;;;;4925175;28;19918;-60
2022/05/30 02:03:33;;;;;;;;;;;;;;;;;;4915006;28;19969;-60
2022/05/30 02:05:59;;;;;;;;;;;;;;;;;;4913526;28;19969;-61
2022/05/30 02:08:27;;;;;;;;;;;;;;;;;;4934697;28;19926;-61
2022/05/30 02:10:53;;;;;;;;;;;;;;;;;;4913531;28;19954;-61
2022/05/30 02:13:18;;;;;;;;;;;;;;;;;;4932254;28;19922;-62
2022/05/30 02:18:30;;;;;;;;;;;;;;;;;;4921885;28;20026;-61
2022/05/30 02:20:58;;;;;;;;;;;;;;;;;;4920149;28;19931;-61
2022/05/30 02:23:23;;;;;;;;;;;;;;;;;;4918884;28;19931;-61
2022/05/30 02:25:48;;;;;;;;;;;;;;;;;;4916874;28;19926;-62
2022/05/30 02:28:14;;;;;;;;;;;;;;;;;;4926267;28;19918;-61
2022/05/30 02:30:41;;;;;;;;;;;;;;;;;;4923751;28;20342;-61
2022/05/30 02:38:35;;;;;;;;;;;;;;;;;;4926570;28;20008;-60
2022/05/30 02:41:02;;;;;;;;;;;;;;;;;;4930413;28;20461;-61
2022/05/30 02:43:30;;;;;;;;;;;;;;;;;;4927311;28;19926;-61
2022/05/30 02:45:58;;;;;;;;;;;;;;;;;;4944383;28;19923;-61
2022/05/30 02:48:23;;;;;;;;;;;;;;;;;;4924299;28;19929;-61
2022/05/30 02:50:48;;;;;;;;;;;;;;;;;;4924358;28;21967;-61
2022/05/30 02:53:16;;;;;;;;;;;;;;;;;;4941347;28;19923;-61
2022/05/30 02:55:41;;;;;;;;;;;;;;;;;;4927441;28;19923;-60
2022/05/30 02:58:07;;;;;;;;;;;;;;;;;;4926127;28;21602;-61
2022/05/30 03:00:32;;;;;;;;;;;;;;;;;;4924126;28;20457;-61
2022/05/30 03:03:00;;;;;;;;;;;;;;;;;;4940826;28;19926;-60
2022/05/30 03:05:30;;;;;;;;;;;;;;;;;;4944235;28;19970;-61
2022/05/30 03:07:55;;;;;;;;;;;;;;;;;;4926613;28;19973;-61
2022/05/30 03:10:20;;;;;;;;;;;;;;;;;;4925681;28;19926;-62
2022/05/30 03:12:48;;;;;;;;;;;;;;;;;;4926494;28;19933;-59
2022/05/30 03:15:13;;;;;;;;;;;;;;;;;;4928277;28;19926;-60
2022/05/30 03:17:39;;;;;;;;;;;;;;;;;;4926421;28;19922;-60
2022/05/30 03:20:04;;;;;;;;;;;;;;;;;;4924087;28;19934;-61
2022/05/30 03:22:29;;;;;;;;;;;;;;;;;;4928355;28;20405;-62
2022/05/30 03:24:57;;;;;;;;;;;;;;;;;;4931388;28;20275;-62
2022/05/30 03:27:25;;;;;;;;;;;;;;;;;;4925956;28;19918;-63
2022/05/30 03:29:50;;;;;;;;;;;;;;;;;;4925241;28;19923;-63
2022/05/30 03:32:15;;;;;;;;;;;;;;;;;;4923558;28;19969;-61
2022/05/30 03:34:43;;;;;;;;;;;;;;;;;;4923752;28;20005;-61
2022/05/30 03:37:08;;;;;;;;;;;;;;;;;;4925782;28;19922;-61
2022/05/30 03:39:36;;;;;;;;;;;;;;;;;;4921043;28;20053;-61
2022/05/30 03:42:04;;;;;;;;;;;;;;;;;;4924666;28;19922;-61
2022/05/30 03:44:29;;;;;;;;;;;;;;;;;;4942194;28;19941;-61
2022/05/30 03:46:54;;;;;;;;;;;;;;;;;;4926690;28;19969;-61
2022/05/30 03:49:23;;;;;;;;;;;;;;;;;;4940373;28;19926;-61
2022/05/30 03:51:50;;;;;;;;;;;;;;;;;;4937864;28;20009;-61
2022/05/30 03:54:16;;;;;;;;;;;;;;;;;;4938439;28;19973;-61
2022/05/30 03:56:41;;;;;;;;;;;;;;;;;;4926848;28;20013;-60
2022/05/30 03:59:08;;;;;;;;;;;;;;;;;;4923173;28;19926;-61
2022/05/30 04:01:36;;;;;;;;;;;;;;;;;;4925225;28;20013;-61
2022/05/30 04:04:04;;;;;;;;;;;;;;;;;;4938131;28;19937;-61
2022/05/30 04:06:29;;;;;;;;;;;;;;;;;;4928365;28;19923;-61
2022/05/30 04:08:57;;;;;;;;;;;;;;;;;;4921983;28;20391;-61
2022/05/30 04:11:24;;;;;;;;;;;;;;;;;;4924061;28;19968;-61
2022/05/30 04:13:50;;;;;;;;;;;;;;;;;;4925915;28;19923;-61
2022/05/30 04:16:19;;;;;;;;;;;;;;;;;;4942962;28;19922;-61
2022/05/30 04:18:44;;;;;;;;;;;;;;;;;;4939182;28;20012;-62
2022/05/30 04:21:09;;;;;;;;;;;;;;;;;;4942274;28;20635;-61
2022/05/30 04:23:40;;;;;;;;;;;;;;;;;;4922801;28;19934;-62
2022/05/30 04:26:11;;;;;;;;;;;;;;;;;;4911792;28;20313;-62
2022/05/30 04:28:39;;;;;;;;;;;;;;;;;;4925300;28;19918;-62
2022/05/30 04:31:07;;;;;;;;;;;;;;;;;;4923373;28;19918;-60
2022/05/30 04:33:33;;;;;;;;;;;;;;;;;;4909567;28;19985;-61
2022/05/30 04:36:03;;;;;;;;;;;;;;;;;;4909615;28;19977;-62
2022/05/30 04:38:28;;;;;;;;;;;;;;;;;;4939175;28;20227;-61
2022/05/30 04:40:56;;;;;;;;;;;;;;;;;;4939281;28;20433;-61
2022/05/30 04:43:24;;;;;;;;;;;;;;;;;;4923984;28;20013;-60
2022/05/30 04:45:49;;;;;;;;;;;;;;;;;;4925116;28;19976;-62
2022/05/30 04:48:17;;;;;;;;;;;;;;;;;;4931368;28;19972;-62
2022/05/30 04:50:42;;;;;;;;;;;;;;;;;;4922144;28;19923;-61
2022/05/30 04:53:08;;;;;;;;;;;;;;;;;;4936348;28;19922;-62
2022/05/30 04:55:35;;;;;;;;;;;;;;;;;;4922705;28;19927;-62
2022/05/30 04:58:04;;;;;;;;;;;;;;;;;;4920844;28;19919;-62
2022/05/30 05:00:32;;;;;;;;;;;;;;;;;;4922404;28;19929;-61
2022/05/30 05:02:57;;;;;;;;;;;;;;;;;;4924476;28;19930;-62
2022/05/30 05:05:27;;;;;;;;;;;;;;;;;;4926346;28;19926;-63
2022/05/30 05:07:52;;;;;;;;;;;;;;;;;;4924695;28;19981;-59
2022/05/30 05:10:17;;;;;;;;;;;;;;;;;;4925002;28;19926;-62
2022/05/30 05:12:43;;;;;;;;;;;;;;;;;;4923956;28;19918;-62
2022/05/30 05:15:08;;;;;;;;;;;;;;;;;;4937706;28;19926;-60
2022/05/30 05:17:33;;;;;;;;;;;;;;;;;;4942755;28;19927;-61
2022/05/30 05:20:01;;;;;;;;;;;;;;;;;;4921308;28;19926;-61
2022/05/30 05:22:26;;;;;;;;;;;;;;;;;;4924612;28;19965;-62
2022/05/30 05:24:54;;;;;;;;;;;;;;;;;;4936403;28;19926;-63
2022/05/30 05:27:22;;;;;;;;;;;;;;;;;;4924001;28;19923;-63
2022/05/30 05:29:47;;;;;;;;;;;;;;;;;;4925372;28;19934;-62
2022/05/30 05:32:15;;;;;;;;;;;;;;;;;;4924000;28;20382;-63
2022/05/30 05:34:41;;;;;;;;;;;;;;;;;;4931944;28;19969;-61
2022/05/30 05:37:08;;;;;;;;;;;;;;;;;;4936162;28;20021;-60
2022/05/30 05:39:34;;;;;;;;;;;;;;;;;;4911887;28;19948;-61
2022/05/30 05:41:59;;;;;;;;;;;;;;;;;;4920016;28;19918;-61
2022/05/30 05:44:24;;;;;;;;;;;;;;;;;;4917351;28;19938;-60
2022/05/30 05:46:50;;;;;;;;;;;;;;;;;;4923028;28;20554;-62
2022/05/30 05:49:18;;;;;;;;;;;;;;;;;;4923328;28;19918;-61
2022/05/30 05:51:43;;;;;;;;;;;;;;;;;;4923205;28;19933;-60
2022/05/30 05:54:13;;;;;;;;;;;;;;;;;;4931935;28;19922;-60
2022/05/30 05:56:39;;;;;;;;;;;;;;;;;;4920927;28;19929;-60
2022/05/30 05:59:05;;;;;;;;;;;;;;;;;;4922698;28;20390;-60
2022/05/30 06:01:30;;;;;;;;;;;;;;;;;;4926555;28;19929;-61
2022/05/30 06:03:56;;;;;;;;;;;;;;;;;;4932533;28;21367;-61
2022/05/30 06:06:22;;;;;;;;;;;;;;;;;;4929203;28;19918;-61
2022/05/30 06:08:48;;;;;;;;;;;;;;;;;;4930525;28;19922;-61
2022/05/30 06:11:13;;;;;;;;;;;;;;;;;;4947252;28;20001;-61
2022/05/30 06:13:41;;;;;;;;;;;;;;;;;;4934644;28;19923;-61
2022/05/30 06:16:06;;;;;;;;;;;;;;;;;;4926648;28;19933;-61
2022/05/30 06:18:32;;;;;;;;;;;;;;;;;;4944887;28;20053;-61
2022/05/30 06:21:00;;;;;;;;;;;;;;;;;;4927186;28;19922;-62
2022/05/30 06:23:25;;;;;;;;;;;;;;;;;;4942044;28;20120;-60
2022/05/30 06:25:50;;;;;;;;;;;;;;;;;;4928210;28;19929;-61
2022/05/30 06:28:16;;;;;;;;;;;;;;;;;;4927970;28;19919;-61
2022/05/30 06:30:44;;;;;;;;;;;;;;;;;;4928153;28;19922;-62
2022/05/30 06:33:11;;;;;;;;;;;;;;;;;;4928212;28;20362;-62
2022/05/30 06:35:36;;;;;;;;;;;;;;;;;;4929125;28;19965;-60
2022/05/30 06:38:02;;;;;;;;;;;;;;;;;;4930875;28;19923;-60
2022/05/30 06:40:27;;;;;;;;;;;;;;;;;;4927546;28;19922;-61
2022/05/30 06:42:52;;;;;;;;;;;;;;;;;;4920108;28;19970;-61
2022/05/30 06:45:18;;;;;;;;;;;;;;;;;;4922133;28;20918;-61
2022/05/30 06:47:46;;;;;;;;;;;;;;;;;;4921725;28;19937;-61
2022/05/30 06:50:11;;;;;;;;;;;;;;;;;;4922869;28;19918;-61
2022/05/30 06:52:37;;;;;;;;;;;;;;;;;;4925398;28;19945;-60
2022/05/30 06:55:02;;;;;;;;;;;;;;;;;;4926973;28;19922;-61
2022/05/30 07:00:15;;;;;;;;;;;;;;;;;;4926563;28;19922;-62
2022/05/30 07:02:42;;;;;;;;;;;;;;;;;;4933914;28;20363;-59
2022/05/30 07:05:08;;;;;;;;;;;;;;;;;;4919776;28;19961;-59
2022/05/30 07:07:36;;;;;;;;;;;;;;;;;;4927252;28;19932;-58
2022/05/30 07:10:01;;;;;;;;;;;;;;;;;;4927829;28;20318;-68
2022/05/30 07:12:26;;;;;;;;;;;;;;;;;;4922406;28;19923;-74
2022/05/30 07:14:51;;;;;;;;;;;;;;;;;;4915873;28;19923;-71
2022/05/30 07:17:17;;;;;;;;;;;;;;;;;;4928804;28;19989;-69
2022/05/30 07:19:45;;;;;;;;;;;;;;;;;;4929617;28;20017;-67
2022/05/30 07:22:11;;;;;;;;;;;;;;;;;;4940561;28;19929;-65
2022/05/30 07:24:37;;;;;;;;;;;;;;;;;;4929030;28;20333;-66
2022/05/30 07:27:05;;;;;;;;;;;;;;;;;;4943986;28;19936;-65
2022/05/30 07:29:33;;;;;;;;;;;;;;;;;;4942173;28;19930;-66
2022/05/30 07:31:58;;;;;;;;;;;;;;;;;;4945955;28;19930;-65
2022/05/30 07:34:23;;;;;;;;;;;;;;;;;;4944499;28;19923;-65
2022/05/30 07:36:49;;;;;;;;;;;;;;;;;;4930360;28;20020;-64
2022/05/30 07:39:15;;;;;;;;;;;;;;;;;;4942254;28;19928;-62
2022/05/30 07:41:43;;;;;;;;;;;;;;;;;;4925493;28;19957;-62
2022/05/30 07:44:08;;;;;;;;;;;;;;;;;;4923497;28;19926;-64
2022/05/30 07:46:33;;;;;;;;;;;;;;;;;;4921870;28;19922;-63
2022/05/30 07:48:59;;;;;;;;;;;;;;;;;;4920822;28;19922;-62
2022/05/30 07:51:26;;;;;;;;;;;;;;;;;;4935533;28;19918;-63
2022/05/30 07:53:54;;;;;;;;;;;;;;;;;;4933695;28;20701;-62
2022/05/30 07:56:20;;;;;;;;;;;;;;;;;;4920493;28;20477;-64
2022/05/30 07:58:46;;;;;;;;;;;;;;;;;;4935711;28;19933;-63
2022/05/30 08:01:13;;;;;;;;;;;;;;;;;;4925119;28;19923;-64
2022/05/30 08:03:38;;;;;;;;;;;;;;;;;;4924118;28;19926;-61
2022/05/30 08:06:07;;;;;;;;;;;;;;;;;;4938703;28;19953;-61
2022/05/30 08:08:32;;;;;;;;;;;;;;;;;;4926580;28;20528;-62
2022/05/30 08:11:00;;;;;;;;;;;;;;;;;;4938713;28;19958;-62
2022/05/30 08:13:28;;;;;;;;;;;;;;;;;;4923895;28;20555;-64
2022/05/30 08:15:54;;;;;;;;;;;;;;;;;;4941425;28;20003;-63
2022/05/30 08:18:19;;;;;;;;;;;;;;;;;;4941942;28;19922;-62
2022/05/30 08:20:46;;;;;;;;;;;;;;;;;;4922985;28;19965;-64
2022/05/30 08:23:14;;;;;;;;;;;;;;;;;;4925031;28;19981;-64
2022/05/30 08:25:39;;;;;;;;;;;;;;;;;;4924734;28;20655;-66
2022/05/30 08:28:05;;;;;;;;;;;;;;;;;;4928618;28;19965;-63
2022/05/30 08:30:30;;;;;;;;;;;;;;;;;;4927183;28;19922;-63
2022/05/30 08:32:55;;;;;;;;;;;;;;;;;;4934253;28;19966;-63
2022/05/30 08:35:23;;;;;;;;;;;;;;;;;;4907746;28;19922;-63
2022/05/30 08:37:49;;;;;;;;;;;;;;;;;;4938194;28;21948;-63
2022/05/30 08:43:01;;;;;;;;;;;;;;;;;;4926579;28;19938;-63
2022/05/30 08:45:26;;;;;;;;;;;;;;;;;;4925496;28;19922;-63
2022/05/30 08:47:51;;;;;;;;;;;;;;;;;;4926404;28;20458;-62
2022/05/30 08:50:21;;;;;;;;;;;;;;;;;;4927641;28;19970;-63
2022/05/30 08:52:46;;;;;;;;;;;;;;;;;;4942317;28;19922;-62
2022/05/30 08:55:14;;;;;;;;;;;;;;;;;;4928703;28;20013;-62
2022/05/30 08:57:42;;;;;;;;;;;;;;;;;;4927604;28;20402;-61
2022/05/30 09:00:10;;;;;;;;;;;;;;;;;;4926091;28;20586;-61
2022/05/30 09:02:36;;;;;;;;;;;;;;;;;;4923850;28;19921;-60
2022/05/30 09:05:01;;;;;;;;;;;;;;;;;;4921309;28;19969;-61
2022/05/30 09:07:27;;;;;;;;;;;;;;;;;;4924085;28;19923;-61
2022/05/30 09:13:09;;;;;;;;;;;;;;;;;;4927519;28;20902;-63
2022/05/30 09:15:35;;;;;;;;;;;;;;;;;;4924394;28;19957;-62
2022/05/30 09:18:03;;;;;;;;;;;;;;;;;;4923214;28;19978;-62
2022/05/30 09:20:31;;;;;;;;;;;;;;;;;;4926142;28;20390;-61
2022/05/30 09:22:56;;;;;;;;;;;;;;;;;;4924824;28;20839;-63
2022/05/30 09:28:08;;;;;;;;;;;;;;;;;;4923239;28;19928;-62
2022/05/30 09:30:33;;;;;;;;;;;;;;;;;;4925168;28;19927;-63
2022/05/30 09:32:59;;;;;;;;;;;;;;;;;;4919472;28;19918;-62
2022/05/30 09:35:24;;;;;;;;;;;;;;;;;;4924659;28;19930;-63
2022/05/30 09:37:53;;;;;;;;;;;;;;;;;;4931081;28;19965;-63
2022/05/30 09:43:35;;;;;;;;;;;;;;;;;;4934509;28;20007;-63
2022/05/30 09:46:00;;;;;;;;;;;;;;;;;;4929826;28;20015;-62
2022/05/30 09:48:26;;;;;;;;;;;;;;;;;;4928711;28;20366;-63
2022/05/30 09:50:56;;;;;;;;;;;;;;;;;;4940576;28;19922;-63
2022/05/30 09:53:22;;;;;;;;;;;;;;;;;;4940865;28;19926;-63
2022/05/30 09:55:51;;;;;;;;;;;;;;;;;;4914791;28;20505;-63
2022/05/30 09:58:21;;;;;;;;;;;;;;;;;;4946113;28;19918;-63
2022/05/30 10:00:47;;;;;;;;;;;;;;;;;;4941225;28;19981;-65
2022/05/30 10:03:12;;;;;;;;;;;;;;;;;;4925876;28;19930;-63
2022/05/30 10:05:41;;;;;;;;;;;;;;;;;;4926524;28;20079;-64
2022/05/30 10:08:07;;;;;;;;;;;;;;;;;;4924491;28;20541;-63
2022/05/30 10:10:35;;;;;;;;;;;;;;;;;;4925019;28;19929;-64
2022/05/30 10:13:01;;;;;;;;;;;;;;;;;;4929064;28;19918;-64
2022/05/30 10:15:29;;;;;;;;;;;;;;;;;;4927526;28;20865;-65
2022/05/30 10:17:54;;;;;;;;;;;;;;;;;;4921238;28;19918;-64
2022/05/30 10:20:19;;;;;;;;;;;;;;;;;;4931121;28;19934;-63
2022/05/30 10:28:17;;;;;;;;;;;;;;;;;;4924554;28;19931;-64
2022/05/30 10:30:44;;;;;;;;;;;;;;;;;;4901171;28;20005;-65
2022/05/30 10:33:09;;;;;;;;;;;;;;;;;;4933938;28;20018;-64
2022/05/30 10:35:34;;;;;;;;;;;;;;;;;;4920598;28;20844;-66
2022/05/30 10:37:59;;;;;;;;;;;;;;;;;;4927914;28;19929;-63
2022/05/30 10:40:25;;;;;;;;;;;;;;;;;;4913455;29;19965;-62
2022/05/30 10:42:50;;;;;;;;;;;;;;;;;;4930015;28;19968;-64
2022/05/30 10:45:18;;;;;;;;;;;;;;;;;;4923419;28;19922;-64
2022/05/30 10:47:48;;;;;;;;;;;;;;;;;;4916563;28;20586;-60
2022/05/30 10:50:15;;;;;;;;;;;;;;;;;;4926076;28;19934;-63
2022/05/30 10:52:43;;;;;;;;;;;;;;;;;;4920110;28;19933;-63
2022/05/30 10:55:08;;;;;;;;;;;;;;;;;;4925100;28;19927;-63
2022/05/30 10:57:34;;;;;;;;;;;;;;;;;;4923162;28;19978;-62
2022/05/30 11:00:04;;;;;;;;;;;;;;;;;;4935507;28;20009;-61
2022/05/30 11:02:29;;;;;;;;;;;;;;;;;;4935036;28;20032;-60
2022/05/30 11:04:57;;;;;;;;;;;;;;;;;;4933290;28;19926;-61
2022/05/30 11:07:23;;;;;;;;;;;;;;;;;;4920251;28;19973;-63
2022/05/30 11:09:48;;;;;;;;;;;;;;;;;;4923765;28;21128;-61
2022/05/30 11:12:15;;;;;;;;;;;;;;;;;;4929428;28;19929;-61
2022/05/30 11:14:41;;;;;;;;;;;;;;;;;;4929102;28;19922;-61
2022/05/30 11:17:10;;;;;;;;;;;;;;;;;;4928488;28;19958;-62
2022/05/30 11:19:35;;;;;;;;;;;;;;;;;;4912183;29;19926;-62
2022/05/30 11:22:01;;;;;;;;;;;;;;;;;;4943807;28;20962;-61
2022/05/30 11:24:27;;;;;;;;;;;;;;;;;;4924947;28;19978;-61
2022/05/30 11:26:54;;;;;;;;;;;;;;;;;;4923487;28;21968;-61
2022/05/30 11:29:25;;;;;;;;;;;;;;;;;;4923729;28;19923;-61
2022/05/30 11:31:53;;;;;;;;;;;;;;;;;;4922833;28;19977;-61
2022/05/30 11:34:19;;;;;;;;;;;;;;;;;;4918014;28;20153;-61
2022/05/30 11:36:44;;;;;;;;;;;;;;;;;;4922951;28;19981;-61
2022/05/30 11:39:12;;;;;;;;;;;;;;;;;;4922307;28;19929;-61
2022/05/30 11:41:38;;;;;;;;;;;;;;;;;;4928721;28;19922;-61
2022/05/30 11:44:03;;;;;;;;;;;;;;;;;;4928762;28;20576;-60
2022/05/30 11:46:31;;;;;;;;;;;;;;;;;;4928121;28;19923;-62
2022/05/30 11:48:59;;;;;;;;;;;;;;;;;;4927359;28;19923;-61
2022/05/30 11:51:25;;;;;;;;;;;;;;;;;;4925664;28;20037;-62
2022/05/30 11:53:50;;;;;;;;;;;;;;;;;;4924641;28;19962;-62
2022/05/30 11:56:15;;;;;;;;;;;;;;;;;;4923876;28;20723;-61
2022/05/30 11:58:40;;;;;;;;;;;;;;;;;;4940965;28;19923;-61
2022/05/30 12:01:06;;;;;;;;;;;;;;;;;;4927162;28;19922;-63
2022/05/30 12:03:32;;;;;;;;;;;;;;;;;;4918671;28;19926;-61
2022/05/30 12:06:02;;;;;;;;;;;;;;;;;;4918008;28;20463;-62
2022/05/30 12:08:27;;;;;;;;;;;;;;;;;;4919512;28;19970;-62
2022/05/30 12:14:12;;;;;;;;;;;;;;;;;;4923136;28;20438;-61
2022/05/30 12:16:40;;;;;;;;;;;;;;;;;;4920391;28;19919;-62
2022/05/30 12:24:35;;;;;;;;;;;;;;;;;;4940638;28;19937;-63
2022/05/30 12:27:03;;;;;;;;;;;;;;;;;;4936092;28;20677;-60
2022/05/30 12:29:29;;;;;;;;;;;;;;;;;;4938345;28;19962;-61
2022/05/30 12:31:54;;;;;;;;;;;;;;;;;;4936212;28;19922;-61
2022/05/30 12:34:22;;;;;;;;;;;;;;;;;;4938661;28;20401;-62
2022/05/30 12:36:47;;;;;;;;;;;;;;;;;;4904558;28;20029;-62
2022/05/30 12:39:12;;;;;;;;;;;;;;;;;;4915292;28;19926;-63
2022/05/30 12:44:58;;;;;;;;;;;;;;;;;;4922843;28;20302;-62
2022/05/30 12:47:24;;;;;;;;;;;;;;;;;;4920862;28;19922;-62
2022/05/30 12:49:51;;;;;;;;;;;;;;;;;;4920007;28;19926;-63
2022/05/30 12:52:19;;;;;;;;;;;;;;;;;;4927232;28;19974;-62
2022/05/30 12:54:46;;;;;;;;;;;;;;;;;;4933020;28;19926;-61
2022/05/30 12:57:14;;;;;;;;;;;;;;;;;;4942789;28;19922;-61
2022/05/30 12:59:45;;;;;;;;;;;;;;;;;;4929189;28;19923;-61
2022/05/30 13:02:11;;;;;;;;;;;;;;;;;;4925604;28;19926;-61
2022/05/30 13:04:38;;;;;;;;;;;;;;;;;;4933928;28;21229;-60
2022/05/30 13:07:06;;;;;;;;;;;;;;;;;;4922836;28;20618;-61
2022/05/30 13:09:34;;;;;;;;;;;;;;;;;;4920724;28;19923;-62
2022/05/30 13:12:02;;;;;;;;;;;;;;;;;;4920602;28;19922;-63
2022/05/30 13:14:28;;;;;;;;;;;;;;;;;;4920702;28;20064;-63
2022/05/30 13:16:53;;;;;;;;;;;;;;;;;;4917148;28;20006;-64
2022/05/30 13:19:21;;;;;;;;;;;;;;;;;;4917297;28;20579;-63
2022/05/30 13:21:48;;;;;;;;;;;;;;;;;;4919379;28;20006;-63
2022/05/30 13:24:16;;;;;;;;;;;;;;;;;;4920511;28;19942;-63
2022/05/30 13:26:41;;;;;;;;;;;;;;;;;;4936866;28;19922;-64
2022/05/30 13:29:06;;;;;;;;;;;;;;;;;;4937682;28;20013;-63
2022/05/30 13:31:32;;;;;;;;;;;;;;;;;;4934587;28;19932;-63
2022/05/30 13:33:57;;;;;;;;;;;;;;;;;;4922754;28;20526;-64
2022/05/30 13:36:25;;;;;;;;;;;;;;;;;;4942828;28;19926;-64
2022/05/30 13:38:51;;;;;;;;;;;;;;;;;;4940852;28;19918;-64
2022/05/30 13:41:17;;;;;;;;;;;;;;;;;;4930074;28;20347;-64
2022/05/30 13:43:44;;;;;;;;;;;;;;;;;;4927387;28;19933;-64
2022/05/30 13:46:10;;;;;;;;;;;;;;;;;;4942194;28;20429;-64
2022/05/30 13:48:40;;;;;;;;;;;;;;;;;;4931281;28;19919;-64
2022/05/30 13:51:06;;;;;;;;;;;;;;;;;;4927196;28;19922;-65
2022/05/30 13:53:37;;;;;;;;;;;;;;;;;;4929883;28;19953;-63
2022/05/30 13:56:02;;;;;;;;;;;;;;;;;;4928965;28;19977;-63
2022/05/30 13:58:30;;;;;;;;;;;;;;;;;;4929054;28;21295;-62
2022/05/30 14:00:55;;;;;;;;;;;;;;;;;;4928416;28;19929;-62
2022/05/30 14:03:21;;;;;;;;;;;;;;;;;;4928564;28;19926;-62
2022/05/30 14:05:46;;;;;;;;;;;;;;;;;;4928449;28;19938;-60
2022/05/30 14:08:16;;;;;;;;;;;;;;;;;;4928556;28;19945;-62
2022/05/30 14:10:44;;;;;;;;;;;;;;;;;;5236849;23;19968;-61
2022/05/30 14:16:01;;;;;;;;;;;;;;;;;;4966565;28;19925;-61
2022/05/30 14:18:26;;;;;;;;;;;;;;;;;;4967196;28;20575;-61
2022/05/30 14:20:55;;;;;;;;;;;;;;;;;;4968656;28;20353;-61
2022/05/30 14:23:21;;;;;;;;;;;;;;;;;;4967336;28;20024;-62
2022/05/30 14:25:48;;;;;;;;;;;;;;;;;;4969494;28;19976;-62
2022/05/30 14:28:14;;;;;;;;;;;;;;;;;;4971893;28;19922;-61
2022/05/30 14:30:39;;;;;;;;;;;;;;;;;;4972549;28;20328;-62
2022/05/30 14:33:07;;;;;;;;;;;;;;;;;;4971490;28;19926;-62
2022/05/30 14:39:07;;;;;;;;;;;;;;;;;;4968469;28;20040;-62
2022/05/30 14:41:33;;;;;;;;;;;;;;;;;;4951839;28;19924;-62
2022/05/30 14:43:59;;;;;;;;;;;;;;;;;;4971464;28;19929;-62
2022/05/30 14:46:37;;;;;;;;;;;;;;;;;;4968906;28;19926;-62
2022/05/30 14:52:19;;;;;;;;;;;;;;;;;;4970721;28;20307;-63
2022/05/30 14:54:57;;;;;;;;;;;;;;;;;;4970036;28;19930;-63
2022/05/30 15:00:39;;;;;;;;;;;;;;;;;;4970753;28;20268;-63
2022/05/30 15:05:58;;;;;;;;;;;;;;;;;;4971162;28;20207;-62
2022/05/30 15:08:26;;;;;;;;;;;;;;;;;;4969690;28;20013;-62
2022/05/30 15:10:54;;;;;;;;;;;;;;;;;;4968748;28;20039;-61
2022/05/30 15:13:22;;;;;;;;;;;;;;;;;;4966888;28;20381;-63
2022/05/30 15:15:50;;;;;;;;;;;;;;;;;;4970871;28;19925;-63
2022/05/30 15:18:18;;;;;;;;;;;;;;;;;;4970987;28;19928;-63
2022/05/30 15:20:44;;;;;;;;;;;;;;;;;;4981444;28;19918;-63
2022/05/30 15:23:11;;;;;;;;;;;;;;;;;;4970225;28;19957;-63
2022/05/30 15:28:26;;;;;;;;;;;;;;;;;;4968991;28;19926;-62
2022/05/30 15:31:04;;;;;;;;;;;;;;;;;;4965768;28;19968;-63
2022/05/30 15:36:46;;;;;;;;;;;;;;;;;;4969731;28;19992;-63
2022/05/30 15:39:12;;;;;;;;;;;;;;;;;;4984062;28;19928;-63
2022/05/30 15:41:39;;;;;;;;;;;;;;;;;;4968166;28;19956;-62
2022/05/30 15:44:05;;;;;;;;;;;;;;;;;;4952508;28;20017;-62
2022/05/30 15:46:33;;;;;;;;;;;;;;;;;;4966894;28;19918;-62
2022/05/30 15:49:00;;;;;;;;;;;;;;;;;;4967240;28;19928;-62
2022/05/30 15:51:28;;;;;;;;;;;;;;;;;;4968999;28;19917;-63
2022/05/30 16:02:38;;;;;;;;;;;;;;;;;;4969265;28;19928;-62
2022/05/30 16:05:06;;;;;;;;;;;;;;;;;;4966628;28;19965;-62
2022/05/30 16:07:32;;;;;;;;;;;;;;;;;;4949571;28;19924;-62
2022/05/30 16:10:02;;;;;;;;;;;;;;;;;;4962779;28;19925;-62
2022/05/30 16:15:38;;;;;;;;;;;;;;;;;;4963583;28;21924;-62
2022/05/30 16:18:06;;;;;;;;;;;;;;;;;;4970951;28;20325;-63
2022/05/30 16:20:36;;;;;;;;;;;;;;;;;;4968764;28;19922;-62
2022/05/30 16:23:20;;;;;;;;;;;;;;;;;;4947575;28;19922;-61
2022/05/30 16:25:47;;;;;;;;;;;;;;;;;;4970002;28;21848;-62
2022/05/30 16:31:29;;;;;;;;;;;;;;;;;;4968759;28;19928;-63
2022/05/30 16:33:54;;;;;;;;;;;;;;;;;;4962899;28;19917;-63
2022/05/30 16:36:20;;;;;;;;;;;;;;;;;;4969408;28;20012;-61
2022/05/30 16:38:45;;;;;;;;;;;;;;;;;;4964284;28;19921;-62
2022/05/30 16:41:13;;;;;;;;;;;;;;;;;;4968398;28;20436;-62
2022/05/30 16:43:38;;;;;;;;;;;;;;;;;;4965768;28;19925;-62
2022/05/30 16:46:05;;;;;;;;;;;;;;;;;;4965874;28;19968;-62
2022/05/30 16:51:48;;;;;;;;;;;;;;;;;;4967883;28;21788;-62
2022/05/30 16:54:27;;;;;;;;;;;;;;;;;;4968008;28;19917;-61
2022/05/30 16:56:57;;;;;;;;;;;;;;;;;;4969386;28;19922;-62
2022/05/30 16:59:37;;;;;;;;;;;;;;;;;;4968888;28;19972;-62
2022/05/30 17:02:02;;;;;;;;;;;;;;;;;;4964872;28;20775;-62
2022/05/30 17:04:28;;;;;;;;;;;;;;;;;;4967321;28;19934;-62
2022/05/30 17:06:55;;;;;;;;;;;;;;;;;;4980387;28;20030;-62
2022/05/30 17:09:21;;;;;;;;;;;;;;;;;;4950960;28;19921;-62
2022/05/30 17:11:48;;;;;;;;;;;;;;;;;;4967806;28;19932;-61
2022/05/30 17:14:14;;;;;;;;;;;;;;;;;;4967315;28;20444;-61
2022/05/30 17:16:43;;;;;;;;;;;;;;;;;;4960872;28;20607;-62
2022/05/30 17:19:13;;;;;;;;;;;;;;;;;;4950162;28;19921;-62
2022/05/30 17:21:39;;;;;;;;;;;;;;;;;;4964626;28;20052;-62
2022/05/30 17:24:04;;;;;;;;;;;;;;;;;;4966571;28;20617;-62
2022/05/30 17:29:46;;;;;;;;;;;;;;;;;;4966572;28;19925;-60
2022/05/30 17:32:13;;;;;;;;;;;;;;;;;;4966378;28;19926;-63
2022/05/30 17:34:39;;;;;;;;;;;;;;;;;;4964970;28;19940;-60
2022/05/30 17:37:07;;;;;;;;;;;;;;;;;;4967692;28;19922;-62
2022/05/30 17:39:32;;;;;;;;;;;;;;;;;;4966535;28;19929;-60
2022/05/30 17:42:01;;;;;;;;;;;;;;;;;;4966668;28;19940;-62
2022/05/30 17:44:26;;;;;;;;;;;;;;;;;;4968673;28;20384;-61
2022/05/30 17:46:51;;;;;;;;;;;;;;;;;;4962710;28;20595;-61
2022/05/30 17:49:19;;;;;;;;;;;;;;;;;;4962486;28;19921;-61
2022/05/30 17:51:47;;;;;;;;;;;;;;;;;;4968769;28;19921;-63
2022/05/30 17:54:14;;;;;;;;;;;;;;;;;;4966237;28;19928;-62
2022/05/30 17:56:40;;;;;;;;;;;;;;;;;;4968827;28;19921;-62
2022/05/30 17:59:08;;;;;;;;;;;;;;;;;;4968612;28;20875;-62
2022/05/30 18:04:27;;;;;;;;;;;;;;;;;;4966393;28;19941;-62
2022/05/30 18:06:54;;;;;;;;;;;;;;;;;;4971420;28;19917;-62
2022/05/30 18:09:23;;;;;;;;;;;;;;;;;;4971004;28;19918;-62
2022/05/30 18:12:00;;;;;;;;;;;;;;;;;;4966104;28;20020;-62